Time;durP1;ratioP1;P1;durP2;ratioP2;P2;SDS_P1;SDS_P2;PMS_P1;PMS_P2;Temp;Humidity;BMP_temperature;BMP_pressure;BME280_temperature;BME280_humidity;BME280_pressure;Samples;Min_cycle;Max_cycle;Signal;HPM_P1;HPM_P2
2021/10/14 00:01:02;;;;;;;9.97;7.53;;;10.40;99.90;;;;;;5020538;28;20202;-70
2021/10/14 00:03:31;;;;;;;12.87;7.70;;;10.40;99.90;;;;;;5022088;28;20675;-70
2021/10/14 00:05:59;;;;;;;11.43;7.57;;;10.40;99.90;;;;;;5020806;28;20214;-70
2021/10/14 00:08:29;;;;;;;12.93;8.00;;;10.40;99.90;;;;;;5025642;28;20284;-70
2021/10/14 00:11:00;;;;;;;11.80;7.67;;;10.40;99.90;;;;;;5026847;28;20561;-70
2021/10/14 00:13:28;;;;;;;12.80;7.60;;;10.40;99.90;;;;;;5026351;28;20251;-70
2021/10/14 00:15:57;;;;;;;12.23;7.37;;;10.40;99.90;;;;;;5022652;28;20231;-70
2021/10/14 00:18:25;;;;;;;10.57;8.00;;;10.40;99.90;;;;;;5026655;28;20256;-70
2021/10/14 00:20:54;;;;;;;11.30;7.43;;;10.40;99.90;;;;;;5025981;28;20467;-70
2021/10/14 00:23:23;;;;;;;10.53;7.23;;;10.40;99.90;;;;;;5025977;28;20280;-70
2021/10/14 00:25:53;;;;;;;13.40;7.53;;;10.40;99.90;;;;;;5032597;28;20220;-69
2021/10/14 00:28:21;;;;;;;11.80;7.13;;;10.30;99.90;;;;;;5023517;28;20197;-70
2021/10/14 00:30:50;;;;;;;11.13;7.77;;;10.40;99.90;;;;;;5023506;28;20430;-70
2021/10/14 00:33:18;;;;;;;13.43;7.20;;;10.40;99.90;;;;;;5023084;28;20191;-70
2021/10/14 00:35:46;;;;;;;19.80;7.73;;;10.30;99.90;;;;;;5026556;28;20196;-70
2021/10/14 00:38:15;;;;;;;11.40;6.90;;;10.40;99.90;;;;;;5024632;28;20277;-70
2021/10/14 00:40:45;;;;;;;15.87;7.57;;;10.40;99.90;;;;;;5016874;28;20716;-70
2021/10/14 00:43:15;;;;;;;11.27;6.47;;;10.40;99.90;;;;;;5025953;28;20230;-70
2021/10/14 00:45:43;;;;;;;11.57;7.33;;;10.40;99.90;;;;;;5022053;28;20244;-70
2021/10/14 00:48:12;;;;;;;12.87;7.60;;;10.40;99.90;;;;;;5033522;28;20232;-70
2021/10/14 00:50:40;;;;;;;11.37;7.10;;;10.40;99.90;;;;;;5022084;28;20194;-70
2021/10/14 00:53:11;;;;;;;10.27;7.40;;;10.30;99.90;;;;;;5024699;28;20741;-70
2021/10/14 00:55:40;;;;;;;9.17;7.00;;;10.30;99.90;;;;;;5020519;28;20668;-70
2021/10/14 00:58:10;;;;;;;13.07;7.50;;;10.30;99.90;;;;;;5020763;28;20252;-70
2021/10/14 01:00:39;;;;;;;14.20;7.47;;;10.20;99.90;;;;;;5024415;28;20689;-70
2021/10/14 01:03:08;;;;;;;11.37;7.70;;;10.20;99.90;;;;;;5030294;28;20196;-70
2021/10/14 01:05:38;;;;;;;12.40;7.73;;;10.30;99.90;;;;;;5026076;28;20739;-69
2021/10/14 01:08:06;;;;;;;18.30;7.77;;;10.20;99.90;;;;;;5025154;28;20193;-69
2021/10/14 01:10:35;;;;;;;14.13;8.60;;;10.20;99.90;;;;;;5022533;28;20217;-70
2021/10/14 01:13:03;;;;;;;15.47;8.27;;;10.10;99.90;;;;;;5024734;28;20660;-70
2021/10/14 01:15:32;;;;;;;16.27;8.40;;;10.10;99.90;;;;;;5023554;28;20279;-70
2021/10/14 01:18:01;;;;;;;12.03;7.63;;;10.20;99.90;;;;;;5023870;28;20198;-70
2021/10/14 01:20:31;;;;;;;15.27;8.33;;;10.20;99.90;;;;;;5028601;28;20224;-70
2021/10/14 01:23:00;;;;;;;15.57;8.63;;;10.10;99.90;;;;;;5025554;28;20254;-70
2021/10/14 01:25:28;;;;;;;12.37;8.20;;;10.20;99.90;;;;;;5021604;28;20288;-69
2021/10/14 01:27:57;;;;;;;11.53;7.50;;;10.10;99.90;;;;;;5018553;28;20308;-69
2021/10/14 01:30:26;;;;;;;14.47;7.97;;;10.10;99.90;;;;;;5019743;28;20284;-69
2021/10/14 01:32:55;;;;;;;18.10;8.60;;;10.10;99.90;;;;;;5027716;28;20197;-70
2021/10/14 01:35:23;;;;;;;12.83;8.17;;;10.20;99.90;;;;;;5022313;28;20275;-69
2021/10/14 01:37:53;;;;;;;11.60;8.20;;;10.10;99.90;;;;;;5023769;28;20276;-70
2021/10/14 01:40:22;;;;;;;11.20;8.00;;;10.10;99.90;;;;;;5020384;28;21012;-70
2021/10/14 01:42:50;;;;;;;15.17;7.70;;;10.10;99.90;;;;;;5024998;28;20611;-70
2021/10/14 01:45:19;;;;;;;19.67;8.07;;;10.10;99.90;;;;;;5025210;28;20221;-70
2021/10/14 01:47:47;;;;;;;12.20;6.97;;;10.20;99.90;;;;;;5027148;28;20768;-68
2021/10/14 01:50:16;;;;;;;16.43;7.90;;;10.20;99.90;;;;;;5030886;28;20205;-70
2021/10/14 01:52:44;;;;;;;14.53;7.50;;;10.10;99.90;;;;;;5019291;28;20243;-70
2021/10/14 01:55:14;;;;;;;11.90;6.83;;;10.20;99.90;;;;;;5024144;28;20203;-70
2021/10/14 01:57:42;;;;;;;9.77;7.13;;;10.20;99.90;;;;;;5014038;28;20288;-69
2021/10/14 02:00:12;;;;;;;9.93;6.80;;;10.30;99.90;;;;;;5023786;28;20649;-70
2021/10/14 02:02:40;;;;;;;11.43;6.17;;;10.30;99.90;;;;;;5024268;28;20189;-70
2021/10/14 02:05:09;;;;;;;11.13;6.50;;;10.30;99.90;;;;;;5019422;28;20656;-70
2021/10/14 02:07:37;;;;;;;15.43;6.87;;;10.30;99.90;;;;;;5030724;28;20225;-70
2021/10/14 02:10:07;;;;;;;8.47;5.33;;;10.40;99.90;;;;;;5023675;28;20205;-70
2021/10/14 02:12:37;;;;;;;9.67;5.13;;;10.40;99.90;;;;;;5026756;28;20243;-70
2021/10/14 02:15:08;;;;;;;11.80;5.60;;;10.30;99.90;;;;;;5021398;28;20221;-70
2021/10/14 02:17:37;;;;;;;7.80;5.07;;;10.30;99.90;;;;;;5023400;28;20205;-70
2021/10/14 02:20:07;;;;;;;8.37;4.53;;;10.30;99.90;;;;;;5017851;28;20684;-70
2021/10/14 02:22:35;;;;;;;9.03;4.73;;;10.40;99.90;;;;;;5021805;28;20236;-70
2021/10/14 02:25:04;;;;;;;10.67;4.63;;;10.40;99.90;;;;;;5028453;28;20224;-70
2021/10/14 02:27:36;;;;;;;5.53;4.20;;;10.40;99.90;;;;;;5024592;28;20565;-70
2021/10/14 02:30:07;;;;;;;6.77;4.33;;;10.40;99.90;;;;;;5019599;28;20201;-70
2021/10/14 02:32:36;;;;;;;6.73;4.30;;;10.40;99.90;;;;;;5016403;28;20193;-69
2021/10/14 02:35:06;;;;;;;11.27;4.00;;;10.50;99.90;;;;;;5023386;28;20213;-69
2021/10/14 02:37:38;;;;;;;8.00;4.10;;;10.50;99.90;;;;;;5026238;28;20684;-70
2021/10/14 02:40:07;;;;;;;5.80;3.93;;;10.50;99.90;;;;;;5016274;28;20252;-70
2021/10/14 02:42:37;;;;;;;4.97;3.80;;;10.50;99.90;;;;;;5019841;28;20528;-70
2021/10/14 02:45:07;;;;;;;8.77;4.47;;;10.50;99.90;;;;;;5015917;28;20277;-70
2021/10/14 02:47:35;;;;;;;10.53;4.20;;;10.50;99.90;;;;;;5020721;28;20233;-68
2021/10/14 02:50:04;;;;;;;6.70;4.77;;;10.50;99.90;;;;;;5023116;28;20349;-70
2021/10/14 02:52:32;;;;;;;7.90;4.63;;;10.50;99.90;;;;;;5024885;28;20284;-70
2021/10/14 02:55:01;;;;;;;9.70;4.87;;;10.50;99.90;;;;;;5024533;28;20194;-70
2021/10/14 02:57:29;;;;;;;8.87;4.80;;;10.60;99.90;;;;;;5025293;28;20197;-70
2021/10/14 03:00:07;;;;;;;11.00;5.40;;;10.60;99.90;;;;;;5008108;28;20220;-69
2021/10/14 03:02:35;;;;;;;15.43;5.10;;;10.60;99.90;;;;;;5029266;28;20194;-70
2021/10/14 03:05:04;;;;;;;10.93;5.60;;;10.60;99.90;;;;;;5018916;28;20201;-70
2021/10/14 03:07:32;;;;;;;10.83;5.57;;;10.70;99.90;;;;;;5021570;28;20221;-70
2021/10/14 03:10:07;;;;;;;12.57;6.17;;;10.60;99.90;;;;;;5021378;28;20185;-70
2021/10/14 03:12:36;;;;;;;11.47;6.07;;;10.70;99.90;;;;;;5018033;28;20571;-70
2021/10/14 03:15:06;;;;;;;8.47;6.07;;;10.70;99.90;;;;;;5020413;28;20287;-70
2021/10/14 03:17:35;;;;;;;8.43;6.03;;;10.70;99.90;;;;;;5020006;28;20233;-70
2021/10/14 03:20:07;;;;;;;8.43;6.77;;;10.70;99.90;;;;;;5023975;28;20198;-70
2021/10/14 03:22:36;;;;;;;10.87;6.63;;;10.70;99.90;;;;;;5023324;28;20192;-70
2021/10/14 03:25:05;;;;;;;11.77;7.03;;;10.70;99.90;;;;;;5028183;28;20196;-70
2021/10/14 03:27:36;;;;;;;15.93;7.73;;;10.70;99.90;;;;;;5017890;28;20205;-70
2021/10/14 03:30:07;;;;;;;15.63;7.47;;;10.70;99.90;;;;;;5019951;28;20742;-69
2021/10/14 03:32:35;;;;;;;10.23;7.10;;;10.70;99.90;;;;;;5021581;28;20287;-70
2021/10/14 03:35:04;;;;;;;12.07;7.60;;;10.70;99.90;;;;;;5021115;28;20206;-70
2021/10/14 03:37:33;;;;;;;11.53;7.20;;;10.60;99.90;;;;;;5025385;28;20186;-69
2021/10/14 03:40:02;;;;;;;11.53;7.67;;;10.60;99.90;;;;;;5025740;28;20557;-69
2021/10/14 03:42:30;;;;;;;10.93;7.67;;;10.70;99.90;;;;;;5026044;28;20201;-70
2021/10/14 03:44:58;;;;;;;11.23;7.87;;;10.70;99.90;;;;;;5022583;28;20202;-70
2021/10/14 03:47:28;;;;;;;11.47;7.90;;;10.60;99.90;;;;;;5020967;28;20260;-70
2021/10/14 03:49:56;;;;;;;12.00;8.90;;;10.60;99.90;;;;;;5024780;28;20200;-70
2021/10/14 03:52:25;;;;;;;16.57;8.60;;;10.70;99.90;;;;;;5034320;28;20709;-70
2021/10/14 03:54:53;;;;;;;14.73;9.13;;;10.70;99.90;;;;;;5028493;28;20228;-70
2021/10/14 03:57:21;;;;;;;12.73;8.80;;;10.70;99.90;;;;;;5026653;28;20220;-69
2021/10/14 03:59:50;;;;;;;12.13;9.00;;;10.70;99.90;;;;;;5030599;28;20237;-70
2021/10/14 04:02:18;;;;;;;16.10;9.63;;;10.70;99.90;;;;;;5024314;28;20882;-70
2021/10/14 04:04:48;;;;;;;12.93;9.10;;;10.70;99.90;;;;;;5031028;28;20193;-70
2021/10/14 04:07:17;;;;;;;16.97;10.17;;;10.70;99.90;;;;;;5028276;28;20602;-70
2021/10/14 04:09:48;;;;;;;14.83;10.20;;;10.70;99.90;;;;;;5025540;28;20263;-70
2021/10/14 04:12:16;;;;;;;17.83;10.40;;;10.70;99.90;;;;;;5025999;28;20197;-70
2021/10/14 04:14:45;;;;;;;16.17;10.13;;;10.70;99.90;;;;;;5022622;28;21469;-70
2021/10/14 04:17:13;;;;;;;15.87;10.57;;;10.70;99.90;;;;;;5027303;28;20999;-70
2021/10/14 04:19:42;;;;;;;15.63;10.67;;;10.70;99.90;;;;;;5024829;28;20541;-70
2021/10/14 04:22:12;;;;;;;16.00;10.00;;;10.70;99.90;;;;;;5029506;28;20197;-70
2021/10/14 04:24:41;;;;;;;19.23;10.83;;;10.70;99.90;;;;;;5026876;28;20228;-70
2021/10/14 04:27:09;;;;;;;20.83;10.30;;;10.80;99.90;;;;;;5026837;28;20673;-70
2021/10/14 04:29:37;;;;;;;18.40;11.13;;;10.70;99.90;;;;;;5032256;28;20264;-70
2021/10/14 04:32:09;;;;;;;18.67;11.27;;;10.70;99.90;;;;;;5022819;28;20216;-69
2021/10/14 04:34:38;;;;;;;21.47;11.30;;;10.70;99.90;;;;;;5028311;28;20292;-70
2021/10/14 04:37:07;;;;;;;19.50;10.90;;;10.80;99.90;;;;;;5021577;28;20625;-70
2021/10/14 04:39:38;;;;;;;17.87;11.10;;;10.70;99.90;;;;;;5031885;28;20277;-70
2021/10/14 04:42:08;;;;;;;17.50;11.47;;;10.70;99.90;;;;;;5028585;28;20286;-70
2021/10/14 04:44:37;;;;;;;19.13;12.00;;;10.70;99.90;;;;;;5019014;28;20587;-69
2021/10/14 04:47:06;;;;;;;19.50;11.47;;;10.60;99.90;;;;;;5023899;28;22078;-70
2021/10/14 04:49:34;;;;;;;19.10;11.83;;;10.70;99.90;;;;;;5021763;28;20209;-69
2021/10/14 04:52:03;;;;;;;21.93;12.30;;;10.60;99.90;;;;;;5021917;28;20196;-70
2021/10/14 04:54:38;;;;;;;20.50;12.20;;;10.60;99.90;;;;;;5023977;28;20276;-70
2021/10/14 04:57:06;;;;;;;20.83;12.03;;;10.60;99.90;;;;;;5019963;28;20255;-70
2021/10/14 04:59:35;;;;;;;19.33;12.53;;;10.60;99.90;;;;;;5024551;28;20680;-67
2021/10/14 05:02:03;;;;;;;20.87;11.93;;;10.60;99.90;;;;;;5022194;28;20197;-69
2021/10/14 05:04:32;;;;;;;17.47;11.63;;;10.60;99.90;;;;;;5027085;28;20229;-70
2021/10/14 05:07:00;;;;;;;18.20;11.80;;;10.50;99.90;;;;;;5025773;28;20201;-70
2021/10/14 05:09:28;;;;;;;20.33;12.53;;;10.50;99.90;;;;;;5024619;28;20715;-70
2021/10/14 05:11:58;;;;;;;19.10;11.60;;;10.40;99.90;;;;;;5025388;28;20556;-70
2021/10/14 05:14:29;;;;;;;31.20;13.80;;;10.40;99.90;;;;;;5020437;28;20198;-70
2021/10/14 05:16:57;;;;;;;26.63;15.37;;;10.40;99.90;;;;;;5017471;28;20259;-70
2021/10/14 05:19:26;;;;;;;24.30;14.20;;;10.30;99.90;;;;;;5020173;28;20240;-69
2021/10/14 05:21:54;;;;;;;19.13;12.43;;;10.30;99.90;;;;;;5026773;28;20201;-70
2021/10/14 05:24:23;;;;;;;19.17;12.77;;;10.30;99.90;;;;;;5017588;28;20194;-70
2021/10/14 05:26:51;;;;;;;23.43;12.77;;;10.40;99.90;;;;;;5026939;28;20226;-70
2021/10/14 05:29:21;;;;;;;19.00;12.07;;;10.30;99.90;;;;;;5022057;28;20240;-70
2021/10/14 05:31:49;;;;;;;21.37;13.63;;;10.30;99.90;;;;;;5018336;28;20198;-70
2021/10/14 05:34:18;;;;;;;21.87;13.23;;;10.30;99.90;;;;;;5016763;28;20661;-70
2021/10/14 05:36:46;;;;;;;22.17;13.03;;;10.30;99.90;;;;;;5021823;28;20569;-70
2021/10/14 05:39:14;;;;;;;26.73;14.20;;;10.30;99.90;;;;;;5017825;28;20283;-69
2021/10/14 05:41:43;;;;;;;27.63;15.17;;;10.30;99.90;;;;;;5019852;28;20237;-70
2021/10/14 05:44:11;;;;;;;25.97;16.50;;;10.30;99.90;;;;;;5019082;28;20716;-70
2021/10/14 05:46:41;;;;;;;36.70;19.40;;;10.30;99.90;;;;;;5022159;28;20225;-70
2021/10/14 05:49:10;;;;;;;35.77;17.67;;;10.30;99.90;;;;;;5019180;28;20728;-70
2021/10/14 05:51:38;;;;;;;30.27;17.00;;;10.30;99.90;;;;;;5029112;28;20225;-70
2021/10/14 05:54:06;;;;;;;24.50;14.07;;;10.30;99.90;;;;;;5021061;28;20189;-69
2021/10/14 05:56:35;;;;;;;28.07;15.20;;;10.30;99.90;;;;;;5020869;28;20639;-70
2021/10/14 05:59:03;;;;;;;28.53;14.43;;;10.30;99.90;;;;;;5014640;28;20185;-69
2021/10/14 06:01:32;;;;;;;25.97;14.37;;;10.30;99.90;;;;;;5013725;28;20756;-70
2021/10/14 06:04:01;;;;;;;20.27;13.43;;;10.30;99.90;;;;;;5021912;28;20225;-70
2021/10/14 06:06:31;;;;;;;31.43;16.10;;;10.30;99.90;;;;;;5031458;28;20228;-70
2021/10/14 06:08:59;;;;;;;25.93;14.23;;;10.40;99.90;;;;;;5029840;28;20201;-70
2021/10/14 06:11:28;;;;;;;26.03;14.30;;;10.30;99.90;;;;;;5024208;28;20302;-70
2021/10/14 06:13:56;;;;;;;21.13;14.00;;;10.30;99.90;;;;;;5027875;28;20225;-70
2021/10/14 06:16:24;;;;;;;29.00;14.27;;;10.30;99.90;;;;;;5028388;28;20223;-70
2021/10/14 06:18:53;;;;;;;22.53;14.03;;;10.30;99.90;;;;;;5029750;28;20181;-70
2021/10/14 06:21:23;;;;;;;25.17;14.50;;;10.30;99.90;;;;;;5025450;28;20198;-70
2021/10/14 06:23:51;;;;;;;25.17;14.03;;;10.30;99.90;;;;;;5027150;28;20285;-70
2021/10/14 06:26:20;;;;;;;24.50;13.27;;;10.40;99.90;;;;;;5037831;28;20206;-70
2021/10/14 06:28:48;;;;;;;21.37;13.47;;;10.30;99.90;;;;;;5020429;28;20312;-70
2021/10/14 06:31:17;;;;;;;22.77;13.67;;;10.30;99.90;;;;;;5017845;28;20296;-69
2021/10/14 06:33:45;;;;;;;24.00;14.73;;;10.30;99.90;;;;;;5020088;28;20287;-70
2021/10/14 06:36:13;;;;;;;25.10;14.37;;;10.40;99.90;;;;;;5022979;28;20886;-70
2021/10/14 06:38:43;;;;;;;22.63;14.23;;;10.40;99.90;;;;;;5029598;28;20236;-69
2021/10/14 06:41:13;;;;;;;24.83;15.63;;;10.40;99.90;;;;;;5023456;28;20542;-70
2021/10/14 06:43:42;;;;;;;24.33;14.83;;;10.30;99.90;;;;;;5024134;28;20640;-70
2021/10/14 06:46:10;;;;;;;24.13;13.73;;;10.40;99.90;;;;;;5033927;28;20271;-70
2021/10/14 06:48:39;;;;;;;22.50;13.13;;;10.40;99.90;;;;;;5032001;28;20231;-70
2021/10/14 06:51:07;;;;;;;18.87;13.13;;;10.40;99.90;;;;;;5027967;28;20200;-70
2021/10/14 06:53:37;;;;;;;31.07;14.30;;;10.40;99.90;;;;;;5029552;28;20729;-70
2021/10/14 06:56:07;;;;;;;20.63;13.70;;;10.40;99.90;;;;;;5028510;28;20220;-69
2021/10/14 06:58:35;;;;;;;23.30;14.40;;;10.50;99.90;;;;;;5026590;28;20198;-70
2021/10/14 07:01:04;;;;;;;23.87;14.00;;;10.50;99.90;;;;;;5022428;28;20928;-70
2021/10/14 07:03:36;;;;;;;24.90;14.33;;;10.50;99.90;;;;;;5025019;28;20191;-70
2021/10/14 07:06:04;;;;;;;21.40;14.07;;;10.50;99.90;;;;;;5027090;28;20223;-70
2021/10/14 07:08:33;;;;;;;26.13;13.60;;;10.50;99.90;;;;;;5027677;28;20194;-70
2021/10/14 07:11:01;;;;;;;20.10;13.70;;;10.50;99.90;;;;;;5021130;28;20309;-66
2021/10/14 07:13:31;;;;;;;21.93;13.13;;;10.50;99.90;;;;;;5030732;28;20197;-70
2021/10/14 07:16:00;;;;;;;20.90;13.13;;;10.50;99.90;;;;;;5027215;28;20229;-70
2021/10/14 07:18:28;;;;;;;26.47;13.40;;;10.60;99.90;;;;;;5022638;28;20185;-70
2021/10/14 07:20:56;;;;;;;25.73;14.23;;;10.60;99.90;;;;;;5021494;28;20193;-70
2021/10/14 07:23:25;;;;;;;20.77;13.13;;;10.60;99.90;;;;;;5019996;28;20271;-70
2021/10/14 07:25:53;;;;;;;21.63;12.73;;;10.70;99.90;;;;;;5027628;28;20251;-70
2021/10/14 07:28:22;;;;;;;23.57;13.30;;;10.70;99.90;;;;;;5026002;28;20608;-70
2021/10/14 07:30:54;;;;;;;22.37;14.33;;;10.70;99.90;;;;;;5027649;28;20559;-70
2021/10/14 07:33:23;;;;;;;24.30;13.00;;;10.80;99.90;;;;;;5023319;28;20197;-70
2021/10/14 07:35:52;;;;;;;23.30;12.93;;;10.80;99.90;;;;;;5018285;28;20201;-70
2021/10/14 07:38:20;;;;;;;20.60;13.30;;;10.80;99.90;;;;;;5026851;28;20276;-70
2021/10/14 07:40:48;;;;;;;24.80;13.20;;;10.90;99.90;;;;;;5028085;28;20649;-70
2021/10/14 07:43:17;;;;;;;22.77;12.53;;;10.90;99.90;;;;;;5024264;28;20293;-70
2021/10/14 07:45:47;;;;;;;20.90;12.40;;;11.00;99.90;;;;;;5022118;28;20205;-70
2021/10/14 07:48:17;;;;;;;22.70;12.73;;;11.10;99.90;;;;;;5026014;28;20288;-70
2021/10/14 07:50:45;;;;;;;16.57;12.20;;;11.20;99.90;;;;;;5022209;28;20216;-70
2021/10/14 07:53:16;;;;;;;22.03;13.03;;;11.20;99.90;;;;;;5026624;28;20247;-70
2021/10/14 07:55:46;;;;;;;20.83;11.83;;;11.20;99.90;;;;;;5024686;28;20423;-70
2021/10/14 07:58:15;;;;;;;18.43;11.90;;;11.30;99.90;;;;;;5025930;28;20604;-70
2021/10/14 08:00:46;;;;;;;18.93;12.10;;;11.30;99.90;;;;;;5024184;28;20247;-70
2021/10/14 08:03:17;;;;;;;18.50;11.57;;;11.40;99.90;;;;;;5024333;28;20205;-70
2021/10/14 08:05:46;;;;;;;18.87;11.30;;;11.50;99.90;;;;;;5025920;28;20666;-70
2021/10/14 08:08:14;;;;;;;15.93;11.33;;;11.50;99.90;;;;;;5030427;28;20201;-69
2021/10/14 08:10:43;;;;;;;16.70;10.73;;;11.40;99.90;;;;;;5021406;28;20220;-70
2021/10/14 08:13:14;;;;;;;21.20;11.47;;;11.40;99.90;;;;;;5026558;28;20287;-70
2021/10/14 08:15:49;;;;;;;17.17;10.73;;;11.40;99.90;;;;;;5026249;28;20211;-70
2021/10/14 08:18:21;;;;;;;17.53;10.43;;;11.40;99.90;;;;;;5023613;28;20321;-70
2021/10/14 08:20:50;;;;;;;21.33;11.10;;;11.50;99.90;;;;;;5029783;28;20533;-70
2021/10/14 08:23:20;;;;;;;16.10;10.50;;;11.50;99.90;;;;;;5029681;28;20231;-70
2021/10/14 08:25:49;;;;;;;21.30;11.50;;;11.50;99.90;;;;;;5030696;28;20194;-70
2021/10/14 08:28:18;;;;;;;25.87;10.90;;;11.50;99.90;;;;;;5031290;28;20572;-69
2021/10/14 08:30:50;;;;;;;18.83;10.70;;;11.60;99.90;;;;;;5034008;28;20637;-70
2021/10/14 08:33:20;;;;;;;19.30;10.93;;;11.70;99.90;;;;;;5030844;28;20247;-70
2021/10/14 08:35:48;;;;;;;17.73;11.17;;;11.80;99.90;;;;;;5026618;28;20288;-70
2021/10/14 08:38:16;;;;;;;15.70;9.57;;;11.80;99.90;;;;;;5032580;28;20688;-70
2021/10/14 08:40:47;;;;;;;15.90;10.40;;;11.90;99.90;;;;;;5033186;28;20194;-70
2021/10/14 08:43:18;;;;;;;17.23;10.50;;;11.90;99.90;;;;;;5025724;28;20248;-70
2021/10/14 08:45:48;;;;;;;19.63;11.00;;;11.90;99.90;;;;;;5027367;28;20299;-70
2021/10/14 08:48:17;;;;;;;15.90;9.93;;;11.90;99.90;;;;;;5026821;28;20198;-70
2021/10/14 08:50:48;;;;;;;15.37;9.67;;;12.10;99.90;;;;;;5027032;28;20328;-70
2021/10/14 08:53:19;;;;;;;18.20;9.70;;;12.10;99.90;;;;;;5050192;28;20197;-70
2021/10/14 08:55:48;;;;;;;17.07;10.37;;;12.10;99.90;;;;;;5032600;28;20587;-70
2021/10/14 08:58:16;;;;;;;19.70;10.47;;;12.20;99.90;;;;;;5029758;28;21601;-70
2021/10/14 09:01:07;;;;;;;17.60;10.03;;;12.20;99.90;;;;;;5029120;28;20190;-70
2021/10/14 09:03:39;;;;;;;15.40;10.13;;;12.40;99.90;;;;;;5021569;28;20193;-70
2021/10/14 09:06:11;;;;;;;18.70;10.23;;;12.50;99.90;;;;;;5027314;28;20320;-69
2021/10/14 09:08:41;;;;;;;14.20;9.47;;;12.60;99.90;;;;;;5031322;28;20194;-69
2021/10/14 09:11:13;;;;;;;15.63;10.23;;;12.70;99.90;;;;;;5029707;28;20268;-70
2021/10/14 09:13:52;;;;;;;19.17;10.13;;;12.80;99.90;;;;;;5024811;28;20323;-70
2021/10/14 09:16:22;;;;;;;19.37;10.10;;;13.00;99.90;;;;;;5028216;28;20204;-70
2021/10/14 09:18:51;;;;;;;17.07;9.47;;;13.10;99.90;;;;;;5025412;28;20198;-69
2021/10/14 09:21:27;;;;;;;16.77;10.00;;;13.10;99.90;;;;;;5030304;28;20193;-70
2021/10/14 09:23:58;;;;;;;18.60;9.43;;;13.10;99.90;;;;;;5029156;28;20292;-70
2021/10/14 09:26:32;;;;;;;16.63;10.47;;;13.10;99.90;;;;;;5025594;28;20200;-70
2021/10/14 09:29:11;;;;;;;14.57;9.97;;;13.10;99.90;;;;;;5025965;28;20276;-70
2021/10/14 09:31:51;;;;;;;13.97;9.73;;;13.10;99.90;;;;;;5025110;28;20619;-69
2021/10/14 09:34:39;;;;;;;14.67;9.97;;;13.20;99.90;;;;;;5046543;28;20221;-70
2021/10/14 09:37:27;;;;;;;19.40;10.10;;;13.20;99.90;;;;;;5025074;28;20205;-67
2021/10/14 09:39:58;;;;;;;15.27;10.07;;;13.20;99.90;;;;;;5021355;28;20602;-70
2021/10/14 09:42:42;;;;;;;19.47;10.40;;;13.20;99.90;;;;;;5027737;28;20276;-70
2021/10/14 09:45:22;;;;;;;15.63;10.53;;;13.20;99.90;;;;;;5026845;28;20216;-70
2021/10/14 09:48:08;;;;;;;18.10;11.13;;;13.30;99.90;;;;;;5029049;28;20347;-70
2021/10/14 09:50:39;;;;;;;24.20;10.90;;;13.30;99.90;;;;;;5029744;28;20246;-70
2021/10/14 09:53:12;;;;;;;18.47;10.93;;;13.30;99.90;;;;;;5030757;28;20255;-70
2021/10/14 09:55:40;;;;;;;17.47;11.33;;;13.40;99.90;;;;;;5027385;28;20621;-70
2021/10/14 09:58:10;;;;;;;15.37;10.50;;;13.40;99.90;;;;;;5029798;28;20194;-67
2021/10/14 10:00:40;;;;;;;17.70;10.37;;;13.40;99.90;;;;;;5023901;28;20224;-70
2021/10/14 10:03:10;;;;;;;17.77;10.80;;;13.40;99.90;;;;;;5022333;28;20202;-70
2021/10/14 10:05:39;;;;;;;16.20;10.47;;;13.40;99.90;;;;;;5025701;28;20194;-70
2021/10/14 10:08:13;;;;;;;19.23;10.83;;;13.30;99.90;;;;;;5024619;28;20201;-70
2021/10/14 10:10:45;;;;;;;17.77;11.23;;;13.40;99.90;;;;;;5028311;28;20201;-70
2021/10/14 10:13:14;;;;;;;16.67;11.07;;;13.40;99.90;;;;;;5029390;28;20224;-70
2021/10/14 10:15:46;;;;;;;17.47;10.73;;;13.40;99.90;;;;;;5031443;28;21056;-70
2021/10/14 10:18:43;;;;;;;20.70;11.40;;;13.40;99.90;;;;;;5027379;28;20221;-70
2021/10/14 10:21:44;;;;;;;17.97;11.57;;;13.50;99.90;;;;;;5026409;28;20197;-70
2021/10/14 10:24:32;;;;;;;16.10;10.90;;;13.40;99.90;;;;;;5017728;28;20291;-70
2021/10/14 10:27:05;;;;;;;17.00;11.07;;;13.50;99.90;;;;;;5020659;28;20263;-70
2021/10/14 10:29:58;;;;;;;18.33;10.90;;;13.60;99.90;;;;;;5025184;28;20189;-70
2021/10/14 10:32:27;;;;;;;17.70;11.33;;;13.60;99.90;;;;;;5019847;28;20217;-69
2021/10/14 10:35:04;;;;;;;18.57;11.83;;;13.50;99.90;;;;;;5023898;28;20255;-70
2021/10/14 10:40:26;;;;;;;22.73;12.03;;;13.70;99.90;;;;;;5018146;28;20206;-69
2021/10/14 10:43:00;;;;;;;18.97;10.80;;;13.80;99.90;;;;;;5021589;28;20192;-70
2021/10/14 10:45:31;;;;;;;14.70;10.00;;;13.80;99.90;;;;;;5020058;28;20231;-70
2021/10/14 10:48:05;;;;;;;18.93;11.17;;;13.80;99.90;;;;;;5026974;28;20233;-69
2021/10/14 10:50:51;;;;;;;19.47;10.53;;;13.90;99.90;;;;;;5027996;28;20600;-70
2021/10/14 10:53:23;;;;;;;17.93;10.23;;;14.00;99.90;;;;;;5021065;28;20737;-70
2021/10/14 10:55:54;;;;;;;13.80;9.57;;;14.10;99.90;;;;;;5023482;28;20591;-70
2021/10/14 10:58:45;;;;;;;14.30;9.73;;;14.20;99.90;;;;;;5026616;28;20224;-69
2021/10/14 11:01:15;;;;;;;10.67;9.13;;;14.20;99.90;;;;;;5022321;28;20558;-70
2021/10/14 11:03:57;;;;;;;22.20;14.93;;;14.20;99.90;;;;;;5027054;28;20196;-70
2021/10/14 11:06:26;;;;;;;17.70;11.80;;;14.30;99.90;;;;;;5026739;28;20193;-70
2021/10/14 11:08:59;;;;;;;31.23;22.17;;;14.20;99.90;;;;;;5025770;28;20276;-69
2021/10/14 11:11:31;;;;;;;14.87;7.87;;;14.40;99.90;;;;;;5027418;28;20214;-70
2021/10/14 11:14:00;;;;;;;17.63;10.43;;;14.30;99.90;;;;;;5026157;28;20225;-70
2021/10/14 11:16:30;;;;;;;13.13;9.80;;;14.30;99.90;;;;;;5030552;28;20766;-68
2021/10/14 11:19:01;;;;;;;21.10;14.60;;;14.40;99.90;;;;;;5028873;28;20197;-71
2021/10/14 11:21:39;;;;;;;11.40;7.97;;;14.40;99.90;;;;;;5028240;28;20185;-70
2021/10/14 11:24:10;;;;;;;10.30;7.63;;;14.30;99.90;;;;;;5029064;28;20239;-71
2021/10/14 11:26:43;;;;;;;12.73;10.40;;;14.30;99.90;;;;;;5030523;28;20288;-70
2021/10/14 11:29:16;;;;;;;12.47;8.20;;;14.40;99.90;;;;;;5029622;28;20225;-67
2021/10/14 11:31:50;;;;;;;13.20;7.87;;;14.40;99.90;;;;;;5023053;28;20221;-70
2021/10/14 11:34:21;;;;;;;14.63;11.50;;;14.50;99.90;;;;;;5028666;28;20224;-70
2021/10/14 11:36:52;;;;;;;12.97;7.60;;;14.60;99.90;;;;;;5028108;28;20240;-70
2021/10/14 11:39:22;;;;;;;11.43;8.23;;;14.60;99.90;;;;;;5022744;28;20667;-69
2021/10/14 11:41:57;;;;;;;11.17;8.10;;;14.60;99.90;;;;;;5022203;28;20231;-71
2021/10/14 11:44:27;;;;;;;16.53;9.80;;;14.60;99.90;;;;;;5025179;28;20205;-70
2021/10/14 11:46:57;;;;;;;10.20;7.67;;;14.50;99.90;;;;;;5025233;28;20278;-70
2021/10/14 11:49:26;;;;;;;17.47;8.67;;;14.50;99.90;;;;;;5025800;28;20240;-71
2021/10/14 11:51:55;;;;;;;17.80;10.47;;;14.40;99.90;;;;;;5026390;28;20213;-70
2021/10/14 11:54:23;;;;;;;26.43;16.93;;;14.30;99.90;;;;;;5023471;28;20575;-70
2021/10/14 11:56:55;;;;;;;18.70;12.23;;;14.30;99.90;;;;;;5027744;28;20197;-70
2021/10/14 11:59:25;;;;;;;13.33;9.03;;;14.20;99.90;;;;;;5024997;28;20243;-70
2021/10/14 12:02:01;;;;;;;12.43;7.93;;;14.10;99.90;;;;;;5007915;28;20219;-70
2021/10/14 12:04:36;;;;;;;12.40;8.40;;;14.00;99.90;;;;;;5043778;28;20196;-70
2021/10/14 12:07:45;;;;;;;11.17;8.43;;;14.10;99.90;;;;;;5024196;28;20206;-70
2021/10/14 12:10:36;;;;;;;12.83;8.70;;;14.00;99.90;;;;;;5037919;28;20759;-70
2021/10/14 12:13:08;;;;;;;12.50;8.50;;;14.00;99.90;;;;;;5025580;28;20216;-71
2021/10/14 12:15:36;;;;;;;17.60;8.47;;;13.90;99.90;;;;;;5030532;28;20197;-70
2021/10/14 12:18:06;;;;;;;14.03;8.47;;;14.00;99.90;;;;;;5036687;28;20202;-70
2021/10/14 12:20:35;;;;;;;16.07;10.03;;;14.00;99.90;;;;;;5027323;28;20225;-70
2021/10/14 12:23:07;;;;;;;15.43;8.13;;;14.00;99.90;;;;;;5026583;28;20222;-71
2021/10/14 12:25:36;;;;;;;14.27;8.07;;;14.00;99.90;;;;;;5034112;28;20189;-71
2021/10/14 12:28:21;;;;;;;13.33;8.03;;;14.00;99.90;;;;;;5026144;28;20668;-71
2021/10/14 12:30:50;;;;;;;12.50;8.57;;;14.00;99.90;;;;;;5029978;28;20255;-71
2021/10/14 12:33:20;;;;;;;14.53;8.50;;;14.10;99.90;;;;;;5032540;28;20300;-70
2021/10/14 12:35:55;;;;;;;18.97;8.30;;;14.10;99.90;;;;;;5039314;28;20231;-71
2021/10/14 12:38:34;;;;;;;14.03;8.60;;;14.30;99.90;;;;;;5031498;28;20246;-70
2021/10/14 12:41:06;;;;;;;13.73;7.43;;;14.40;99.90;;;;;;5029125;28;20194;-71
2021/10/14 12:43:44;;;;;;;9.17;6.50;;;14.30;99.90;;;;;;5031272;28;20194;-70
2021/10/14 12:46:22;;;;;;;9.70;7.33;;;14.30;99.90;;;;;;5030320;28;20245;-70
2021/10/14 12:48:55;;;;;;;11.97;8.10;;;14.30;99.90;;;;;;5032465;28;20193;-71
2021/10/14 12:51:25;;;;;;;10.70;7.70;;;14.30;99.90;;;;;;5026805;28;20197;-70
2021/10/14 12:53:59;;;;;;;11.17;7.33;;;14.30;99.90;;;;;;5025928;28;20244;-70